createdAt,value
2022-08-27T00:00:08.638Z,60.2
2022-08-27T00:01:12.025Z,60.1
2022-08-27T00:02:12.699Z,60
2022-08-27T00:03:14.626Z,60
2022-08-27T00:04:16.665Z,60.1
2022-08-27T00:05:18.582Z,60.1
2022-08-27T00:06:20.616Z,60
2022-08-27T00:07:22.584Z,60
2022-08-27T00:08:24.605Z,60.1
2022-08-27T00:09:27.309Z,60.1
2022-08-27T00:10:28.654Z,60.1
2022-08-27T00:11:30.601Z,60.2
2022-08-27T00:12:32.608Z,60.4
2022-08-27T00:13:34.612Z,60.7
2022-08-27T00:14:36.609Z,61
2022-08-27T00:15:38.663Z,60.9
2022-08-27T00:16:40.727Z,60.7
2022-08-27T00:17:42.632Z,60.7
2022-08-27T00:18:44.631Z,60.6
2022-08-27T00:19:46.619Z,60.7
2022-08-27T00:20:48.629Z,60.8
2022-08-27T00:22:05.978Z,60.9
2022-08-27T00:23:07.622Z,61.2
2022-08-27T00:24:09.618Z,61.8
2022-08-27T00:25:11.629Z,62.2
2022-08-27T00:26:13.625Z,62.6
2022-08-27T00:27:15.664Z,63.1
2022-08-27T00:28:17.719Z,63.4
2022-08-27T00:29:19.635Z,63.6
2022-08-27T00:30:21.636Z,63.7
2022-08-27T00:31:27.292Z,63.9
2022-08-27T00:32:25.643Z,63.8
2022-08-27T00:33:27.693Z,63.8
2022-08-27T00:34:29.622Z,63.6
2022-08-27T00:35:31.661Z,63.5
2022-08-27T00:36:33.651Z,63.3
2022-08-27T00:37:35.685Z,63.3
2022-08-27T00:38:37.713Z,63.4
2022-08-27T00:39:39.659Z,63.4
2022-08-27T00:40:41.645Z,63.3
2022-08-27T00:41:43.659Z,63.2
2022-08-27T00:42:45.717Z,63.1
2022-08-27T00:43:47.685Z,63.2
2022-08-27T00:44:49.658Z,63.3
2022-08-27T00:45:51.721Z,63.4
2022-08-27T00:46:53.685Z,63.6
2022-08-27T00:47:55.717Z,63.8
2022-08-27T00:48:57.663Z,64.1
2022-08-27T00:49:59.777Z,64.6
2022-08-27T00:51:01.726Z,64.9
2022-08-27T00:55:41.704Z,65.1
2022-08-27T00:56:43.705Z,65
2022-08-27T00:57:45.692Z,65
2022-08-27T00:58:47.680Z,65.2
2022-08-27T00:59:49.689Z,65.5
2022-08-27T01:00:51.772Z,65.5
2022-08-27T01:01:53.749Z,65.7
2022-08-27T01:02:55.715Z,65.8
2022-08-27T01:03:57.695Z,65.9
2022-08-27T01:04:59.697Z,65.9
2022-08-27T01:06:01.908Z,66
2022-08-27T01:07:03.705Z,66.1
2022-08-27T01:08:05.690Z,66.3
2022-08-27T01:09:07.715Z,66.4
2022-08-27T01:10:09.740Z,66.5
2022-08-27T01:11:11.757Z,66.5
2022-08-27T01:12:13.708Z,66.5
2022-08-27T01:13:16.761Z,66.4
2022-08-27T01:14:18.727Z,66.4
2022-08-27T01:15:20.767Z,66.5
2022-08-27T01:16:22.849Z,66.4
2022-08-27T01:17:24.725Z,66.4
2022-08-27T01:18:26.741Z,66.2
2022-08-27T01:19:28.822Z,65.8
2022-08-27T01:20:30.714Z,65.4
2022-08-27T01:21:32.743Z,65.2
2022-08-27T01:22:34.792Z,65.2
2022-08-27T01:23:36.729Z,65.3
2022-08-27T01:24:38.726Z,65.2
2022-08-27T01:25:40.756Z,65.1
2022-08-27T01:26:42.769Z,65.1
2022-08-27T01:27:44.797Z,65.1
2022-08-27T01:28:46.734Z,65
2022-08-27T01:29:48.733Z,64.8
2022-08-27T01:30:51.682Z,64.7
2022-08-27T01:31:53.837Z,64.7
2022-08-27T01:32:56.641Z,64.3
2022-08-27T01:33:58.734Z,64.2
2022-08-27T01:35:00.944Z,64
2022-08-27T01:36:02.898Z,63.8
2022-08-27T01:37:04.905Z,64
2022-08-27T01:38:08.298Z,64.1
2022-08-27T01:39:08.791Z,64.3
2022-08-27T01:40:10.813Z,64.4
2022-08-27T01:41:13.871Z,64.2
2022-08-27T01:42:16.652Z,64.2
2022-08-27T01:43:18.803Z,64.1
2022-08-27T01:44:21.064Z,64.1
2022-08-27T01:45:22.767Z,64.2
2022-08-27T01:46:24.893Z,64.2
2022-08-27T01:47:30.541Z,64.1
2022-08-27T01:48:28.815Z,64.3
2022-08-27T01:49:30.773Z,64.2
2022-08-27T01:50:32.761Z,64.4
2022-08-27T01:51:34.781Z,64.7
2022-08-27T01:52:36.755Z,64.9
2022-08-27T01:53:38.830Z,65
2022-08-27T01:54:40.769Z,65.2
2022-08-27T01:55:45.937Z,65.4
2022-08-27T01:56:46.842Z,65.4
2022-08-27T01:57:48.781Z,65.4
2022-08-27T01:58:50.864Z,65.4
2022-08-27T01:59:52.788Z,65.5
2022-08-27T02:00:56.501Z,65.6
2022-08-27T02:01:56.884Z,65.8
2022-08-27T02:02:58.788Z,66
2022-08-27T02:04:00.841Z,66.1
2022-08-27T02:05:02.930Z,66.2
2022-08-27T02:06:04.789Z,66.1
2022-08-27T02:07:06.809Z,66.2
2022-08-27T02:08:08.903Z,66.2
2022-08-27T02:09:10.811Z,66.4
2022-08-27T02:10:12.821Z,66.6
2022-08-27T02:11:14.818Z,66.9
2022-08-27T02:12:16.796Z,67.1
2022-08-27T02:13:18.810Z,67.3
2022-08-27T02:14:20.812Z,67.4
2022-08-27T02:15:22.881Z,67.5
2022-08-27T02:16:25.619Z,67.5
2022-08-27T02:17:26.802Z,67.5
2022-08-27T02:18:28.817Z,67.4
2022-08-27T02:19:30.876Z,67.5
2022-08-27T02:20:32.850Z,67.5
2022-08-27T02:21:34.826Z,67.4
2022-08-27T02:22:36.916Z,67.3
2022-08-27T02:23:38.829Z,67.2
2022-08-27T02:24:41.147Z,67.1
2022-08-27T02:25:42.863Z,67
2022-08-27T02:26:44.830Z,67
2022-08-27T02:27:46.814Z,66.9
2022-08-27T02:28:48.843Z,66.8
2022-08-27T02:29:50.905Z,66.9
2022-08-27T02:30:53.235Z,66.9
2022-08-27T02:31:55.582Z,67
2022-08-27T02:32:57.632Z,67.2
2022-08-27T02:33:59.905Z,67.3
2022-08-27T02:35:02.136Z,67.3
2022-08-27T02:36:04.967Z,67.3
2022-08-27T02:37:07.708Z,67.4
2022-08-27T02:38:10.141Z,67.4
2022-08-27T02:39:11.961Z,67.4
2022-08-27T02:40:13.973Z,67.5
2022-08-27T02:41:15.874Z,67.5
2022-08-27T02:42:17.862Z,67.5
2022-08-27T02:43:25.073Z,67.5
2022-08-27T02:44:22.001Z,67.8
2022-08-27T02:45:23.866Z,67.9
2022-08-27T02:46:25.956Z,67.9
2022-08-27T02:47:27.874Z,67.8
2022-08-27T02:48:29.922Z,67.8
2022-08-27T02:49:31.898Z,67.8
2022-08-27T02:50:33.879Z,67.6
2022-08-27T02:51:35.888Z,67.5
2022-08-27T02:52:38.927Z,67.5
2022-08-27T02:53:41.919Z,67.5
2022-08-27T02:54:43.961Z,67.4
2022-08-27T02:55:46.730Z,67.3
2022-08-27T02:56:48.994Z,67.2
2022-08-27T02:57:50.888Z,67.1
2022-08-27T02:58:52.876Z,66.9
2022-08-27T02:59:54.917Z,66.8
2022-08-27T03:00:56.900Z,66.7
2022-08-27T03:01:59.126Z,66.8
2022-08-27T03:03:00.998Z,66.9
2022-08-27T03:04:02.891Z,67
2022-08-27T03:05:04.908Z,67
2022-08-27T03:06:06.905Z,67.1
2022-08-27T03:07:08.919Z,67.3
2022-08-27T03:08:11.000Z,67.5
2022-08-27T03:09:13.985Z,67.7
2022-08-27T03:10:15.942Z,68
2022-08-27T03:11:17.908Z,68.3
2022-08-27T03:12:19.909Z,68.4
2022-08-27T03:13:21.909Z,68.4
2022-08-27T03:14:24.945Z,68.5
2022-08-27T03:15:27.742Z,68.7
2022-08-27T03:16:29.061Z,68.7
2022-08-27T03:17:30.920Z,68.5
2022-08-27T03:18:33.711Z,68.4
2022-08-27T03:19:34.952Z,68.2
2022-08-27T03:20:36.918Z,68.2
2022-08-27T03:21:38.912Z,68.2
2022-08-27T03:22:40.920Z,68.2
2022-08-27T03:23:42.926Z,68.2
2022-08-27T03:24:44.947Z,68.3
2022-08-27T03:25:46.969Z,68.4
2022-08-27T03:26:52.544Z,68.6
2022-08-27T03:27:51.460Z,68.8
2022-08-27T03:28:52.937Z,69
2022-08-27T03:29:54.970Z,69.1
2022-08-27T03:30:56.981Z,69
2022-08-27T03:31:58.942Z,68.8
2022-08-27T03:33:02.075Z,68.8
2022-08-27T03:38:35.963Z,68.3
2022-08-27T03:39:38.080Z,68.2
2022-08-27T03:40:39.951Z,68.3
2022-08-27T03:41:45.376Z,68.4
2022-08-27T03:42:43.972Z,68.4
2022-08-27T03:43:45.983Z,68.3
2022-08-27T03:44:48.032Z,68.3
2022-08-27T03:45:57.095Z,68.2
2022-08-27T03:46:52.011Z,68.1
2022-08-27T03:47:54.906Z,68.1
2022-08-27T03:48:57.373Z,68.1
2022-08-27T03:49:58.969Z,68.2
2022-08-27T03:51:00.975Z,68.1
2022-08-27T03:52:02.994Z,68.1
2022-08-27T03:53:04.973Z,68.4
2022-08-27T03:54:06.967Z,68.4
2022-08-27T03:55:08.975Z,68.4
2022-08-27T03:56:10.969Z,68.5
2022-08-27T03:57:13.023Z,68.3
2022-08-27T03:58:14.970Z,68.3
2022-08-27T03:59:16.974Z,68.3
2022-08-27T04:00:19.014Z,68.2
2022-08-27T04:01:21.085Z,68.3
2022-08-27T04:02:23.070Z,68.2
2022-08-27T04:03:25.004Z,68.2
2022-08-27T04:04:27.031Z,68.3
2022-08-27T04:05:29.006Z,68.3
2022-08-27T04:06:30.989Z,68.2
2022-08-27T04:07:33.025Z,68.1
2022-08-27T04:08:34.992Z,68
2022-08-27T04:09:37.013Z,68
2022-08-27T04:10:38.987Z,68.4
2022-08-27T04:11:41.013Z,68.8
2022-08-27T04:12:43.009Z,69
2022-08-27T04:13:45.003Z,69.2
2022-08-27T04:14:47.020Z,69.5
2022-08-27T04:15:49.091Z,69.5
2022-08-27T04:16:51.028Z,69.7
2022-08-27T04:17:53.015Z,69.7
2022-08-27T04:18:55.018Z,69.8
2022-08-27T04:19:57.065Z,70.2
2022-08-27T04:20:59.029Z,70.5
2022-08-27T04:22:01.026Z,70.9
2022-08-27T04:23:03.009Z,71
2022-08-27T04:24:05.038Z,71.1
2022-08-27T04:25:09.933Z,71.1
2022-08-27T04:26:09.076Z,71
2022-08-27T04:27:11.103Z,70.9
2022-08-27T04:28:13.026Z,70.9
2022-08-27T04:29:15.030Z,71.2
2022-08-27T04:30:17.711Z,71.3
2022-08-27T04:31:19.091Z,71.1
2022-08-27T04:32:21.085Z,70.8
2022-08-27T04:33:23.032Z,70.6
2022-08-27T04:34:25.034Z,70.2
2022-08-27T04:35:27.110Z,69.8
2022-08-27T04:36:29.052Z,69.6
2022-08-27T04:37:31.031Z,69.5
2022-08-27T04:38:33.052Z,69.3
2022-08-27T04:39:35.064Z,69.1
2022-08-27T04:40:37.160Z,69
2022-08-27T04:41:39.047Z,68.8
2022-08-27T04:42:41.092Z,68.6
2022-08-27T04:43:43.056Z,68.4
2022-08-27T04:44:45.058Z,68.4
2022-08-27T04:45:47.118Z,68.2
2022-08-27T04:46:49.185Z,67.8
2022-08-27T04:47:51.107Z,67.7
2022-08-27T04:48:53.074Z,67.5
2022-08-27T04:49:55.652Z,67.5
2022-08-27T04:50:57.144Z,67.4
2022-08-27T04:51:59.075Z,67.3
2022-08-27T04:53:01.076Z,67.2
2022-08-27T04:54:03.097Z,67.1
2022-08-27T04:55:05.108Z,66.7
2022-08-27T04:56:07.111Z,66.5
2022-08-27T04:57:09.087Z,66.3
2022-08-27T04:58:11.210Z,66.2
2022-08-27T04:59:13.098Z,66.1
2022-08-27T05:00:15.101Z,66.1
2022-08-27T05:01:17.193Z,66.2
2022-08-27T05:02:19.080Z,66.2
2022-08-27T05:03:21.077Z,66.3
2022-08-27T05:04:23.090Z,66.3
2022-08-27T05:05:25.125Z,66.1
2022-08-27T05:06:27.149Z,65.7
2022-08-27T05:07:29.126Z,65.7
2022-08-27T05:08:31.087Z,65.5
2022-08-27T05:09:33.089Z,65.3
2022-08-27T05:10:35.161Z,65.3
2022-08-27T05:11:37.116Z,65.5
2022-08-27T05:12:39.094Z,65.2
2022-08-27T05:13:41.102Z,65.2
2022-08-27T05:14:43.121Z,65
2022-08-27T05:15:45.186Z,64.9
2022-08-27T05:16:47.165Z,64.7
2022-08-27T05:17:49.099Z,64.5
2022-08-27T05:18:51.110Z,64.3
2022-08-27T05:19:53.107Z,63.8
2022-08-27T05:20:55.140Z,63.5
2022-08-27T05:21:57.157Z,63.1
2022-08-27T05:22:59.114Z,62.9
2022-08-27T05:24:01.160Z,62.7
2022-08-27T05:25:03.167Z,62.4
2022-08-27T05:26:05.123Z,62.3
2022-08-27T05:27:07.140Z,62.2
2022-08-27T05:28:09.419Z,62
2022-08-27T05:29:11.200Z,61.7
2022-08-27T05:30:13.168Z,61.5
2022-08-27T05:31:15.256Z,61.1
2022-08-27T05:32:17.136Z,61.1
2022-08-27T05:33:19.171Z,61
2022-08-27T05:34:22.093Z,61.1
2022-08-27T05:35:23.126Z,61.1
2022-08-27T05:36:25.219Z,60.9
2022-08-27T05:37:27.138Z,60.6
2022-08-27T05:38:29.152Z,60
2022-08-27T05:39:31.135Z,59.6
2022-08-27T05:40:33.226Z,59.3
2022-08-27T05:41:35.180Z,59.4
2022-08-27T05:42:37.147Z,59.1
2022-08-27T05:43:39.164Z,58.6
2022-08-27T05:44:41.925Z,57.9
2022-08-27T05:45:43.177Z,56.9
2022-08-27T05:46:45.229Z,55.8
2022-08-27T05:47:47.143Z,54.6
2022-08-27T05:48:49.158Z,53.3
2022-08-27T05:49:51.157Z,51.7
2022-08-27T05:50:53.170Z,50.4
2022-08-27T05:51:55.241Z,49.2
2022-08-27T05:52:57.163Z,48.2
2022-08-27T05:53:59.158Z,47.2
2022-08-27T05:55:01.175Z,46.3
2022-08-27T05:56:03.230Z,45.8
2022-08-27T05:57:05.209Z,44.8
2022-08-27T05:58:07.195Z,44.9
2022-08-27T05:59:09.253Z,44.9
2022-08-27T06:00:14.819Z,44.8
2022-08-27T06:01:13.173Z,44.5
2022-08-27T06:02:15.203Z,44.6
2022-08-27T06:03:17.193Z,44.3
2022-08-27T06:04:19.275Z,44.1
2022-08-27T06:05:21.252Z,43.4
2022-08-27T06:06:23.196Z,43
2022-08-27T06:07:25.191Z,41.8
2022-08-27T06:08:27.200Z,41.4
2022-08-27T06:09:29.261Z,41
2022-08-27T06:10:31.228Z,41.1
2022-08-27T06:11:33.228Z,41.1
2022-08-27T06:12:35.209Z,41.4
2022-08-27T06:13:37.209Z,41.8
2022-08-27T06:14:39.217Z,41.8
2022-08-27T06:15:41.348Z,41.7
2022-08-27T06:16:43.430Z,42.1
2022-08-27T06:17:45.199Z,42.4
2022-08-27T06:18:47.211Z,41.9
2022-08-27T06:19:49.210Z,41.4
2022-08-27T06:20:51.423Z,40.8
2022-08-27T06:22:00.020Z,40.1
2022-08-27T06:22:55.389Z,39.3
2022-08-27T06:23:57.272Z,38.7
2022-08-27T06:24:59.231Z,38.4
2022-08-27T06:26:01.372Z,38
2022-08-27T06:27:03.352Z,38.1
2022-08-27T06:28:06.647Z,38
2022-08-27T06:29:07.272Z,37.9
2022-08-27T06:30:09.288Z,37.9
2022-08-27T06:31:11.307Z,37.7
2022-08-27T06:32:13.231Z,37
2022-08-27T06:33:15.288Z,36.9
2022-08-27T06:34:17.263Z,36.6
2022-08-27T06:35:19.452Z,36.4
2022-08-27T06:36:21.250Z,36.1
2022-08-27T06:37:23.255Z,35.9
2022-08-27T06:38:25.280Z,36.1
2022-08-27T06:39:27.243Z,36.5
2022-08-27T06:40:29.522Z,36.6
2022-08-27T06:41:31.288Z,36.4
2022-08-27T06:42:33.274Z,36.4
2022-08-27T06:43:35.291Z,36.9
2022-08-27T06:44:37.270Z,37.1
2022-08-27T06:45:39.257Z,37.3
2022-08-27T06:46:41.369Z,37.8
2022-08-27T06:47:43.261Z,38.2
2022-08-27T06:48:45.342Z,38.5
2022-08-27T06:49:47.305Z,38.5
2022-08-27T06:50:49.278Z,38.4
2022-08-27T06:51:51.281Z,38.7
2022-08-27T06:52:53.289Z,38.4
2022-08-27T06:53:55.317Z,38.4
2022-08-27T06:54:57.342Z,38.6
2022-08-27T06:55:59.293Z,38.6
2022-08-27T06:57:01.519Z,38.9
2022-08-27T06:58:03.336Z,39.2
2022-08-27T06:59:05.343Z,39.5
2022-08-27T07:00:07.348Z,40
2022-08-27T07:01:09.410Z,40.9
2022-08-27T07:02:12.388Z,41.5
2022-08-27T07:03:13.698Z,41.9
2022-08-27T07:04:15.312Z,41.9
2022-08-27T07:05:17.311Z,41.2
2022-08-27T07:06:19.397Z,40.6
2022-08-27T07:07:28.026Z,40.5
2022-08-27T07:08:23.456Z,40.4
2022-08-27T07:09:25.316Z,40.7
2022-08-27T07:10:27.315Z,40.7
2022-08-27T07:11:29.311Z,40.6
2022-08-27T07:12:31.491Z,40.6
2022-08-27T07:13:33.541Z,40.3
2022-08-27T07:14:37.924Z,40.1
2022-08-27T07:15:37.435Z,39.7
2022-08-27T07:16:40.856Z,39.7
2022-08-27T07:17:41.909Z,39.9
2022-08-27T07:18:43.335Z,39.8
2022-08-27T07:19:45.377Z,39.9
2022-08-27T07:20:47.330Z,39.9
2022-08-27T07:21:49.331Z,40.1
2022-08-27T07:22:51.345Z,40.4
2022-08-27T07:23:53.415Z,40.5
2022-08-27T07:24:54.907Z,40.8
2022-08-27T07:25:55.831Z,41.1
2022-08-27T07:26:57.369Z,40.8
2022-08-27T07:27:58.899Z,40.3
2022-08-27T07:29:00.667Z,40.1
2022-08-27T07:30:01.990Z,39.8
2022-08-27T07:31:03.409Z,39.2
2022-08-27T07:32:05.351Z,38.6
2022-08-27T07:33:07.365Z,38.7
2022-08-27T07:34:09.409Z,38.9
2022-08-27T07:35:11.381Z,39.2
2022-08-27T07:36:13.379Z,39.4
2022-08-27T07:37:15.364Z,39.8
2022-08-27T07:38:17.378Z,40.3
2022-08-27T07:39:19.381Z,40.4
2022-08-27T07:40:21.430Z,40.5
2022-08-27T07:41:22.751Z,40.7
2022-08-27T07:42:23.741Z,40.9
2022-08-27T07:43:24.798Z,40.9
2022-08-27T07:44:26.223Z,40.1
2022-08-27T07:45:26.785Z,39.6
2022-08-27T07:46:27.817Z,39.4
2022-08-27T07:47:29.402Z,38.8
2022-08-27T07:48:31.389Z,38.5
2022-08-27T07:49:33.393Z,38.7
2022-08-27T07:50:35.407Z,39.4
2022-08-27T07:51:37.531Z,39.9
2022-08-27T07:52:39.399Z,40.9
2022-08-27T07:53:41.395Z,41.7
2022-08-27T07:54:43.430Z,42.3
2022-08-27T07:55:45.393Z,42.2
2022-08-27T07:56:54.598Z,42.1
2022-08-27T07:57:47.759Z,41.9
2022-08-27T07:58:48.802Z,41.5
2022-08-27T07:59:49.846Z,41
2022-08-27T08:00:50.788Z,40.3
2022-08-27T08:01:51.915Z,39.7
2022-08-27T08:02:52.897Z,39.1
2022-08-27T08:03:53.788Z,38.4
2022-08-27T08:04:55.426Z,37.6
2022-08-27T08:05:57.435Z,37
2022-08-27T08:06:59.418Z,37
2022-08-27T08:08:01.503Z,37.3
2022-08-27T08:09:03.460Z,37.7
2022-08-27T08:10:05.471Z,37.8
2022-08-27T08:11:07.487Z,38.1
2022-08-27T08:12:09.589Z,38.3
2022-08-27T08:13:11.508Z,38.6
2022-08-27T08:14:13.422Z,39
2022-08-27T08:15:14.871Z,39.4
2022-08-27T08:16:16.422Z,39.6
2022-08-27T08:17:17.877Z,39.5
2022-08-27T08:18:18.892Z,39.3
2022-08-27T08:19:19.822Z,39
2022-08-27T08:20:31.029Z,38.3
2022-08-27T08:21:21.833Z,38
2022-08-27T08:22:22.833Z,37.4
2022-08-27T08:23:23.895Z,37.3
2022-08-27T08:24:24.846Z,36.9
2022-08-27T08:25:26.026Z,36.3
2022-08-27T08:26:27.457Z,36.3
2022-08-27T08:27:28.999Z,36.4
2022-08-27T08:28:30.540Z,36.7
2022-08-27T08:29:31.839Z,37.1
2022-08-27T08:30:35.202Z,37.4
2022-08-27T08:31:34.887Z,37.3
2022-08-27T08:32:35.860Z,37.9
2022-08-27T08:33:36.931Z,38
2022-08-27T08:34:37.863Z,37.5
2022-08-27T08:35:40.459Z,36.8
2022-08-27T08:36:39.833Z,36.3
2022-08-27T08:37:40.866Z,35.8
2022-08-27T08:38:41.886Z,35.4
2022-08-27T08:39:42.860Z,35.2
2022-08-27T08:40:43.895Z,35.2
2022-08-27T08:41:44.866Z,35
2022-08-27T08:42:50.475Z,34.8
2022-08-27T08:43:46.885Z,34.6
2022-08-27T08:44:47.938Z,34.9
2022-08-27T08:45:48.930Z,34.6
2022-08-27T08:46:49.919Z,34.7
2022-08-27T08:47:50.875Z,34.8
2022-08-27T08:48:51.872Z,35.6
2022-08-27T08:49:53.002Z,35.4
2022-08-27T08:50:53.892Z,35.4
2022-08-27T08:51:54.910Z,35.8
2022-08-27T08:52:55.884Z,35.6
2022-08-27T08:53:56.882Z,35.6
2022-08-27T08:54:57.886Z,35.2
2022-08-27T08:55:59.516Z,35.3
2022-08-27T08:57:00.946Z,35.5
2022-08-27T08:58:01.913Z,36.2
2022-08-27T08:59:03.051Z,36.3
2022-08-27T09:00:04.086Z,36
2022-08-27T09:01:05.587Z,35.8
2022-08-27T09:02:11.371Z,36
2022-08-27T09:03:09.537Z,36.6
2022-08-27T09:04:11.671Z,37.2
2022-08-27T09:05:13.520Z,38.2
2022-08-27T09:06:14.916Z,39.2
2022-08-27T09:07:15.939Z,39.4
2022-08-27T09:08:35.594Z,39.7
2022-08-27T09:09:17.975Z,39.7
2022-08-27T09:10:18.923Z,39.3
2022-08-27T09:11:19.880Z,39.1
2022-08-27T09:12:20.914Z,39
2022-08-27T09:13:21.926Z,38.5
2022-08-27T09:14:23.142Z,38.4
2022-08-27T09:15:23.955Z,38.5
2022-08-27T09:16:24.967Z,38.6
2022-08-27T09:17:25.998Z,38.2
2022-08-27T09:18:27.933Z,37.8
2022-08-27T09:19:27.935Z,37.3
2022-08-27T09:20:28.966Z,37.2
2022-08-27T09:21:30.592Z,36.4
2022-08-27T09:22:31.974Z,35.9
2022-08-27T09:23:33.024Z,36
2022-08-27T09:24:33.962Z,35.9
2022-08-27T09:25:34.988Z,35.8
2022-08-27T09:26:37.134Z,35.7
2022-08-27T09:27:36.987Z,35.3
2022-08-27T09:28:37.930Z,34.9
2022-08-27T09:29:38.952Z,34.6
2022-08-27T09:30:40.703Z,34.9
2022-08-27T09:31:41.984Z,35.3
2022-08-27T09:32:42.957Z,36.1
2022-08-27T09:33:55.071Z,36.3
2022-08-27T09:34:45.951Z,36.5
2022-08-27T09:35:47.623Z,36.8
2022-08-27T09:36:49.589Z,37.2
2022-08-27T09:37:51.618Z,38
2022-08-27T09:38:54.570Z,39.2
2022-08-27T09:39:55.633Z,40.5
2022-08-27T09:40:57.024Z,41.6
2022-08-27T09:41:57.985Z,42.2
2022-08-27T09:42:59.596Z,41.9
2022-08-27T09:44:01.603Z,42.2
2022-08-27T09:45:03.781Z,42.2
2022-08-27T09:46:05.770Z,42.5
2022-08-27T09:47:07.629Z,42.9
2022-08-27T09:48:09.820Z,43.3
2022-08-27T09:49:11.622Z,44.3
2022-08-27T09:50:13.610Z,44.8
2022-08-27T09:51:15.798Z,45
2022-08-27T09:52:16.999Z,45.3
2022-08-27T09:53:18.359Z,45.4
2022-08-27T09:54:18.947Z,45
2022-08-27T09:55:20.005Z,44.2
2022-08-27T09:56:21.092Z,42.9
2022-08-27T09:57:22.882Z,42.1
2022-08-27T09:58:24.629Z,41.5
2022-08-27T09:59:26.625Z,41.1
2022-08-27T10:00:28.640Z,41.2
2022-08-27T10:01:30.830Z,41.2
2022-08-27T10:02:32.666Z,41.9
2022-08-27T10:03:34.034Z,42
2022-08-27T10:04:37.948Z,42.1
2022-08-27T10:05:37.635Z,42.1
2022-08-27T10:06:39.681Z,42.3
2022-08-27T10:07:41.683Z,42.1
2022-08-27T10:08:43.653Z,42.2
2022-08-27T10:09:45.696Z,41.9
2022-08-27T10:10:47.665Z,42.3
2022-08-27T10:11:49.702Z,42.6
2022-08-27T10:12:51.663Z,42.8
2022-08-27T10:13:53.326Z,42.3
2022-08-27T10:14:54.665Z,41.9
2022-08-27T10:15:56.657Z,41.2
2022-08-27T10:16:58.826Z,41.2
2022-08-27T10:18:01.262Z,41.7
2022-08-27T10:19:03.070Z,41.4
2022-08-27T10:20:04.723Z,41.3
2022-08-27T10:21:07.908Z,41.3
2022-08-27T10:22:08.677Z,41.5
2022-08-27T10:23:10.679Z,41.1
2022-08-27T10:24:12.719Z,41.2
2022-08-27T10:25:14.679Z,41.4
2022-08-27T10:26:16.100Z,41.5
2022-08-27T10:27:17.100Z,41.9
2022-08-27T10:28:18.081Z,41.5
2022-08-27T10:29:19.124Z,40.6
2022-08-27T10:30:20.154Z,40.3
2022-08-27T10:31:21.345Z,39.5
2022-08-27T10:32:22.010Z,38.8
2022-08-27T10:33:23.746Z,38.5
2022-08-27T10:34:24.117Z,37.5
2022-08-27T10:35:25.163Z,37.4
2022-08-27T10:36:26.210Z,37.2
2022-08-27T10:37:31.100Z,37.9
2022-08-27T10:38:28.093Z,38
2022-08-27T10:39:29.099Z,38.6
2022-08-27T10:40:30.207Z,38.3
2022-08-27T10:41:31.116Z,37.9
2022-08-27T10:42:32.157Z,37.8
2022-08-27T10:43:33.156Z,37.8
2022-08-27T10:44:34.096Z,36.8
2022-08-27T10:45:35.134Z,37.1
2022-08-27T10:46:36.343Z,37.6
2022-08-27T10:47:37.157Z,37.7
2022-08-27T10:48:38.109Z,37.6
2022-08-27T10:49:39.115Z,37.5
2022-08-27T10:50:40.140Z,37.1
2022-08-27T10:51:41.125Z,36.2
2022-08-27T10:52:42.169Z,34.9
2022-08-27T10:53:43.147Z,33.7
2022-08-27T10:54:44.120Z,33.3
2022-08-27T10:55:45.127Z,33.2
2022-08-27T10:56:46.194Z,33
2022-08-27T10:57:56.712Z,32.7
2022-08-27T10:58:48.161Z,32.9
2022-08-27T10:59:49.156Z,32.7
2022-08-27T11:00:50.777Z,32.8
2022-08-27T11:01:52.222Z,33.8
2022-08-27T11:02:53.169Z,35
2022-08-27T11:03:54.153Z,34.8
2022-08-27T11:04:55.130Z,34.5
2022-08-27T11:05:56.168Z,34.1
2022-08-27T11:06:57.201Z,34.2
2022-08-27T11:07:58.197Z,34.7
2022-08-27T11:08:59.783Z,35
2022-08-27T11:10:01.782Z,35.3
2022-08-27T11:11:23.561Z,35.7
2022-08-27T11:12:19.663Z,36.4
2022-08-27T11:13:05.141Z,36.8
2022-08-27T11:14:06.160Z,36.4
2022-08-27T11:15:11.082Z,35.7
2022-08-27T11:16:08.223Z,35.5
2022-08-27T11:17:09.197Z,35.8
2022-08-27T11:18:10.573Z,35.5
2022-08-27T11:19:11.390Z,34.6
2022-08-27T11:20:12.446Z,34.9
2022-08-27T11:21:13.164Z,35.4
2022-08-27T11:22:16.552Z,36.7
2022-08-27T11:23:15.197Z,37.2
2022-08-27T11:24:16.177Z,37.5
2022-08-27T11:25:17.229Z,38.5
2022-08-27T11:26:18.929Z,38.6
2022-08-27T11:27:20.954Z,38.8
2022-08-27T11:28:22.961Z,39.1
2022-08-27T11:29:23.212Z,39.8
2022-08-27T11:30:24.830Z,40.8
2022-08-27T11:31:26.362Z,41.3
2022-08-27T11:32:27.198Z,42.1
2022-08-27T11:33:28.836Z,42.1
2022-08-27T11:34:30.365Z,41
2022-08-27T11:35:32.128Z,40.6
2022-08-27T11:36:33.676Z,39.5
2022-08-27T11:37:35.051Z,38.5
2022-08-27T11:38:37.210Z,38.1
2022-08-27T11:39:39.174Z,38.8
2022-08-27T11:40:40.769Z,39.2
2022-08-27T11:41:42.358Z,39.2
2022-08-27T11:42:43.820Z,38.3
2022-08-27T11:43:45.478Z,37.3
2022-08-27T11:44:46.402Z,37.2
2022-08-27T11:45:48.441Z,36.1
2022-08-27T11:46:48.496Z,34.9
2022-08-27T11:47:49.582Z,34.7
2022-08-27T11:48:50.428Z,33.6
2022-08-27T11:49:51.724Z,33.2
2022-08-27T11:50:52.444Z,33
2022-08-27T11:51:53.600Z,33.8
2022-08-27T11:52:54.549Z,33.2
2022-08-27T11:53:55.372Z,33.1
2022-08-27T11:54:56.304Z,33.2
2022-08-27T11:55:57.657Z,33.4
2022-08-27T11:56:58.250Z,33.2
2022-08-27T11:57:59.341Z,33.3
2022-08-27T11:59:00.290Z,33.5
2022-08-27T12:00:01.255Z,32.4
2022-08-27T12:01:04.674Z,32
2022-08-27T12:02:03.923Z,32.6
2022-08-27T12:03:05.307Z,32
2022-08-27T12:04:06.350Z,31.2
2022-08-27T12:05:07.342Z,31.5
2022-08-27T12:06:08.252Z,31.8
2022-08-27T12:07:09.369Z,31.7
2022-08-27T12:08:10.460Z,32.6
2022-08-27T12:09:11.283Z,33.1
2022-08-27T12:10:12.288Z,32.6
2022-08-27T12:11:13.296Z,31.7
2022-08-27T12:12:14.259Z,31.4
2022-08-27T12:13:15.484Z,30.4
2022-08-27T12:14:16.641Z,30.1
2022-08-27T12:15:18.090Z,30.2
2022-08-27T12:16:20.613Z,30.5
2022-08-27T12:17:21.605Z,30.1
2022-08-27T12:18:22.531Z,30.2
2022-08-27T12:19:23.688Z,30.6
2022-08-27T12:20:24.387Z,30.3
2022-08-27T12:21:25.365Z,30.3
2022-08-27T12:22:26.532Z,30.9
2022-08-27T12:23:27.612Z,30.7
2022-08-27T12:24:28.716Z,31.2
2022-08-27T12:25:29.537Z,31.1
2022-08-27T12:26:30.615Z,31.5
2022-08-27T12:27:31.351Z,30.9
2022-08-27T12:28:32.724Z,30.8
2022-08-27T12:29:33.540Z,30.7
2022-08-27T12:30:34.932Z,30.4
2022-08-27T12:31:36.504Z,30.7
2022-08-27T12:32:37.888Z,31.5
2022-08-27T12:33:40.145Z,31.7
2022-08-27T12:34:41.667Z,31.1
2022-08-27T12:35:42.801Z,31.1
2022-08-27T12:37:45.852Z,30.4
2022-08-27T12:38:50.772Z,29.8
2022-08-27T12:39:49.711Z,29.8
2022-08-27T12:40:50.840Z,30.1
2022-08-27T12:41:52.690Z,30.4
2022-08-27T12:42:56.412Z,30.8
2022-08-27T12:43:57.515Z,31
2022-08-27T12:44:58.732Z,31.8
2022-08-27T12:45:59.674Z,32.2
2022-08-27T12:47:00.932Z,32
2022-08-27T12:48:02.402Z,31.4
2022-08-27T12:49:10.063Z,31.1
2022-08-27T12:50:05.380Z,30.9
2022-08-27T12:51:09.746Z,31
2022-08-27T12:52:13.635Z,31.3
2022-08-27T12:53:17.296Z,31.6
2022-08-27T12:54:24.445Z,31.3
2022-08-27T12:55:25.368Z,31.3
2022-08-27T12:56:29.396Z,31.5
2022-08-27T12:57:33.595Z,31.9
2022-08-27T12:58:37.674Z,32.3
2022-08-27T12:59:41.541Z,32.2
2022-08-27T13:00:45.501Z,31.8
2022-08-27T13:01:49.139Z,31.7
2022-08-27T13:02:53.697Z,31.6
2022-08-27T13:03:57.096Z,32.8
2022-08-27T13:05:01.912Z,33.4
2022-08-27T13:06:06.418Z,34.3
2022-08-27T13:07:10.575Z,35.2
2022-08-27T13:08:14.317Z,35.6
2022-08-27T13:09:18.118Z,36.1
2022-08-27T13:10:22.592Z,36.2
2022-08-27T13:11:31.768Z,35.1
2022-08-27T13:12:36.369Z,34.6
2022-08-27T13:13:43.134Z,34.2
2022-08-27T13:14:49.663Z,35
2022-08-27T13:15:51.531Z,35.3
2022-08-27T13:16:58.157Z,35.2
2022-08-27T13:18:02.567Z,35.2
2022-08-27T13:19:06.252Z,36.1
2022-08-27T13:20:10.383Z,36.3
2022-08-27T13:21:13.153Z,36.2
2022-08-27T13:22:16.675Z,35.7
2022-08-27T13:23:20.591Z,35.5
2022-08-27T13:24:24.794Z,35.3
2022-08-27T13:25:28.653Z,34.6
2022-08-27T13:26:32.559Z,33.9
2022-08-27T13:27:36.929Z,33.1
2022-08-27T13:28:43.394Z,32.2
2022-08-27T13:29:49.293Z,31.8
2022-08-27T13:30:55.209Z,31.6
2022-08-27T13:31:58.272Z,31.6
2022-08-27T13:33:04.583Z,32.1
2022-08-27T13:34:07.597Z,33.3
2022-08-27T13:35:10.982Z,32.7
2022-08-27T13:36:13.991Z,32.9
2022-08-27T13:37:19.884Z,33.5
2022-08-27T13:38:22.862Z,33.8
2022-08-27T13:39:24.962Z,34.3
2022-08-27T13:40:28.443Z,35.2
2022-08-27T13:41:31.376Z,35.9
2022-08-27T13:42:34.701Z,36
2022-08-27T13:43:36.945Z,35.7
2022-08-27T13:44:40.483Z,35.6
2022-08-27T13:45:43.365Z,35.7
2022-08-27T13:46:46.521Z,36.1
2022-08-27T13:47:51.732Z,36.1
2022-08-27T13:48:54.474Z,35.1
2022-08-27T13:53:34.728Z,34.6
2022-08-27T13:54:38.700Z,34.1
2022-08-27T13:55:42.349Z,33.5
2022-08-27T13:56:46.797Z,33.1
2022-08-27T13:57:54.144Z,32.6
2022-08-27T13:58:59.094Z,32.5
2022-08-27T14:00:06.643Z,33.5
2022-08-27T14:01:11.127Z,34.4